Eureka Springs, AR

9:37 AM CST on February 13, 2016 (GMT -0600)
7 Serenity Lane Holiday Island, AR 72631 | | Change Station
CLOSE
Current Station
Personal Weather Station
Location: Holiday Island, AR
Elevation: 1476 ft
Nearby Weather Stations

Elev 1476 ft 36.47 °N, 93.74 °W | Updated 2 minutes ago

Mostly Cloudy
Mostly Cloudy
30.0 °F
Feels Like 30 °F
N
1.0
Wind Variable Wind from ENE
Gusts 4.0 mph

Today
High -- | Low -- °F
--% Chance of Precip.
Yesterday
High -- | Low -- °F
Precip. -- in
Pressure 30.54 in
Visibility 10.0 miles
Clouds Few 12000 ft
Windchill 30 °F
Dew Point 7 °F
Humidity 38%
Rainfall 0.00 in
Snow Depth Not available.
7:05 AM 5:53 PM
Waxing Crescent, 31% visible
METAR KROG 131457Z 06011KT 10SM FEW120 M02/M14 A3051 RMK AO2 SLP341 T10171139 50009
Pressure 30.54 in
Visibility 10.0 miles
Clouds Few 12000 ft
Windchill 30 °F
Dew Point 7 °F
Humidity 38%
Rainfall 0.00 in
Snow Depth Not available.
7:05 AM 5:53 PM
Waxing Crescent, 31% visible
METAR KROG 131457Z 06011KT 10SM FEW120 M02/M14 A3051 RMK AO2 SLP341 T10171139 50009

10-Day Weather Forecast

Almanac

Astronomy

Feb. 13, 2016 Rise Set
Actual Time
Civil Twilight
Nautical Twilight
Astronomical Twilight
Moon
Length of Visible Light
Length of Day
Tomorrow will be .
, % of the Moon is Illuminated

Today's Extremes

State Highs State Lows

Community

WunderPhotos

Upload Photos

1,892,585 photos uploaded!

WunderBlog® & News

Nearby

Air Quality

  Air Quality AQ Index Pollutant
Not available.

Snow Depth

Station Depth Elevation

Earthquake Activity

City Distance Mag. Time & Date
Minimum magnitude displayed is 2.5.

Coastal Water Temperatures

Place Temperature

Stations

Nearby Weather Stations

Station Location Temp. Windchill Dew Point Humidity Wind Precip. Elev Updated Type
                   

Watches & Warnings

There are currently no watches in effect.